Time;durP1;ratioP1;P1;durP2;ratioP2;P2;SDS_P1;SDS_P2;PMS_P1;PMS_P2;Temp;Humidity;BMP_temperature;BMP_pressure;BME280_temperature;BME280_humidity;BME280_pressure;Samples;Min_cycle;Max_cycle;Signal;HPM_P1;HPM_P2
2023/05/14 00:00:12;;;;;;;8.37;6.17;;;9.10;99.90;;;;;;4161916;28;20026;-63
2023/05/14 00:02:13;;;;;;;10.80;5.90;;;9.10;99.90;;;;;;4162393;28;20049;-62
2023/05/14 00:04:14;;;;;;;8.90;5.43;;;9.10;99.90;;;;;;4161270;28;20034;-64
2023/05/14 00:06:15;;;;;;;8.20;6.17;;;9.10;99.90;;;;;;4162460;28;20026;-74
2023/05/14 00:08:16;;;;;;;12.57;6.40;;;9.10;99.90;;;;;;4161437;28;20088;-75
2023/05/14 00:10:19;;;;;;;10.23;5.53;;;9.00;99.90;;;;;;4162124;28;20484;-75
2023/05/14 00:12:20;;;;;;;8.83;6.50;;;8.90;99.90;;;;;;4162836;28;20029;-71
2023/05/14 00:14:21;;;;;;;9.00;6.37;;;8.90;99.90;;;;;;4161660;28;20033;-67
2023/05/14 00:16:22;;;;;;;9.83;6.50;;;8.80;99.90;;;;;;4161622;28;20033;-74
2023/05/14 00:18:23;;;;;;;11.43;6.37;;;8.70;99.90;;;;;;4145794;28;20038;-69
2023/05/14 00:20:25;;;;;;;10.27;6.50;;;8.60;99.90;;;;;;4146239;28;20032;-75
2023/05/14 00:22:26;;;;;;;9.13;6.63;;;8.50;99.90;;;;;;4144204;28;20054;-76
2023/05/14 00:24:27;;;;;;;10.70;6.77;;;8.40;99.90;;;;;;4161863;28;20780;-74
2023/05/14 00:26:28;;;;;;;10.17;6.23;;;8.30;99.90;;;;;;4161335;28;20432;-73
2023/05/14 00:28:29;;;;;;;9.07;6.70;;;8.30;99.90;;;;;;4162648;28;20466;-71
2023/05/14 00:30:30;;;;;;;9.77;6.30;;;8.30;99.90;;;;;;4152198;28;20426;-76
2023/05/14 00:32:32;;;;;;;12.40;6.80;;;8.20;99.90;;;;;;4145703;28;20105;-75
2023/05/14 00:34:34;;;;;;;11.60;6.77;;;8.20;99.90;;;;;;4144272;28;20034;-73
2023/05/14 00:36:35;;;;;;;10.23;6.63;;;8.20;99.90;;;;;;4145790;28;20053;-64
2023/05/14 00:38:37;;;;;;;9.67;7.20;;;8.10;99.90;;;;;;4145550;28;20026;-76
2023/05/14 00:40:38;;;;;;;8.67;6.37;;;8.10;99.90;;;;;;4144212;28;20084;-61
2023/05/14 00:42:39;;;;;;;8.93;6.80;;;8.10;99.90;;;;;;4145956;28;20037;-76
2023/05/14 00:44:40;;;;;;;10.97;7.17;;;8.10;99.90;;;;;;4144822;28;20092;-75
2023/05/14 00:46:42;;;;;;;10.23;7.33;;;8.00;99.90;;;;;;4145849;28;20030;-67
2023/05/14 00:48:44;;;;;;;11.37;7.07;;;8.00;99.90;;;;;;4144889;28;20026;-75
2023/05/14 00:50:45;;;;;;;7.43;5.97;;;8.00;99.90;;;;;;4146163;28;20033;-73
2023/05/14 00:52:47;;;;;;;9.70;6.37;;;7.90;99.90;;;;;;4145783;28;20482;-75
2023/05/14 00:54:48;;;;;;;10.37;6.00;;;7.90;99.90;;;;;;4144968;28;20033;-76
2023/05/14 00:56:50;;;;;;;11.20;6.37;;;7.90;99.90;;;;;;4154823;28;20094;-76
2023/05/14 00:58:51;;;;;;;10.07;6.37;;;7.90;99.90;;;;;;4162617;28;20034;-77
2023/05/14 01:00:52;;;;;;;10.77;6.07;;;7.90;99.90;;;;;;4161083;28;20029;-74
2023/05/14 01:02:53;;;;;;;9.10;6.40;;;7.90;99.90;;;;;;4156793;28;20483;-72
2023/05/14 01:04:54;;;;;;;8.33;5.90;;;7.80;99.90;;;;;;4144685;28;20072;-71
2023/05/14 01:07:04;;;;;;;7.40;5.80;;;7.80;99.90;;;;;;4145484;28;20046;-76
2023/05/14 01:09:15;;;;;;;10.60;6.23;;;7.80;99.90;;;;;;4150232;28;20452;-76
2023/05/14 01:11:22;;;;;;;10.07;6.20;;;7.70;99.90;;;;;;4161650;28;20446;-70
2023/05/14 01:13:37;;;;;;;6.73;5.67;;;7.80;99.90;;;;;;4149598;28;20088;-77
2023/05/14 01:15:40;;;;;;;10.90;6.63;;;7.70;99.90;;;;;;4145276;28;20029;-75
2023/05/14 01:17:55;;;;;;;8.97;6.57;;;7.70;99.90;;;;;;4145016;28;20026;-75
2023/05/14 01:19:57;;;;;;;10.33;6.43;;;7.60;99.90;;;;;;4145389;28;20080;-69
2023/05/14 01:21:58;;;;;;;8.50;6.40;;;7.60;99.90;;;;;;4144836;28;20087;-74
2023/05/14 01:23:59;;;;;;;11.17;6.73;;;7.50;99.90;;;;;;4144592;28;20037;-76
2023/05/14 01:26:02;;;;;;;8.93;6.50;;;7.50;99.90;;;;;;4145275;28;20068;-77
2023/05/14 01:28:18;;;;;;;11.43;6.53;;;7.50;99.90;;;;;;4144531;28;20033;-76
2023/05/14 01:30:30;;;;;;;8.20;6.13;;;7.50;99.90;;;;;;4144751;28;20062;-61
2023/05/14 01:32:32;;;;;;;10.90;6.00;;;7.50;99.90;;;;;;4144241;28;20562;-72
2023/05/14 01:34:35;;;;;;;9.03;5.43;;;7.50;99.90;;;;;;4145040;28;20063;-75
2023/05/14 01:36:39;;;;;;;10.03;6.13;;;7.50;99.90;;;;;;4146759;28;20088;-76
2023/05/14 01:38:44;;;;;;;7.37;5.53;;;7.60;99.90;;;;;;4161679;28;20029;-62
2023/05/14 01:40:47;;;;;;;8.43;6.23;;;7.60;99.90;;;;;;4160670;28;20095;-75
2023/05/14 01:42:50;;;;;;;10.90;6.47;;;7.60;99.90;;;;;;4161484;28;20108;-75
2023/05/14 01:44:51;;;;;;;11.37;6.23;;;7.60;99.90;;;;;;4159197;28;20478;-75
2023/05/14 01:46:53;;;;;;;7.37;5.97;;;7.60;99.90;;;;;;4145945;28;20104;-61
2023/05/14 01:48:54;;;;;;;10.43;5.80;;;7.60;99.90;;;;;;4144304;28;20112;-63
2023/05/14 01:50:55;;;;;;;8.40;5.93;;;7.60;99.90;;;;;;4145282;28;20088;-74
2023/05/14 01:52:56;;;;;;;8.23;5.80;;;7.60;99.90;;;;;;4147503;28;20474;-74
2023/05/14 01:54:58;;;;;;;13.07;5.30;;;7.50;99.90;;;;;;4148789;28;20524;-65
2023/05/14 01:56:59;;;;;;;7.40;5.37;;;7.50;99.90;;;;;;4146534;28;20116;-76
2023/05/14 01:59:01;;;;;;;6.87;5.13;;;7.50;99.90;;;;;;4148398;28;20465;-74
2023/05/14 02:01:02;;;;;;;7.60;6.13;;;7.40;99.90;;;;;;4147075;28;20379;-73
2023/05/14 02:03:03;;;;;;;7.50;5.40;;;7.40;99.90;;;;;;4147873;28;20482;-76
2023/05/14 02:05:05;;;;;;;7.20;5.30;;;7.40;99.90;;;;;;4147846;28;20026;-74
2023/05/14 02:07:06;;;;;;;10.77;6.10;;;7.40;99.90;;;;;;4147234;28;20030;-75
2023/05/14 02:09:07;;;;;;;9.17;5.83;;;7.40;99.90;;;;;;4148071;28;20088;-61
2023/05/14 02:11:08;;;;;;;7.13;5.47;;;7.40;99.90;;;;;;4147149;28;20482;-76
2023/05/14 02:13:09;;;;;;;7.37;5.63;;;7.30;99.90;;;;;;4160303;28;20083;-62
2023/05/14 02:15:11;;;;;;;7.67;5.73;;;7.30;99.90;;;;;;4157823;28;20375;-74
2023/05/14 02:17:14;;;;;;;9.50;6.30;;;7.30;99.90;;;;;;4148256;28;20033;-62
2023/05/14 02:19:15;;;;;;;11.47;5.90;;;7.20;99.90;;;;;;4147192;28;20076;-76
2023/05/14 02:21:17;;;;;;;7.43;5.90;;;7.30;99.90;;;;;;4154505;28;20091;-62
2023/05/14 02:23:18;;;;;;;6.57;5.07;;;7.30;99.90;;;;;;4145779;28;20041;-77
2023/05/14 02:25:19;;;;;;;10.43;6.00;;;7.30;99.90;;;;;;4163880;28;20087;-68
2023/05/14 02:27:20;;;;;;;7.57;5.43;;;7.30;99.90;;;;;;4163338;28;20029;-62
2023/05/14 02:29:21;;;;;;;6.23;5.10;;;7.20;99.90;;;;;;4163935;28;20436;-75
2023/05/14 02:31:25;;;;;;;6.20;5.00;;;7.20;99.90;;;;;;4163437;28;20482;-77
2023/05/14 02:33:27;;;;;;;11.17;6.40;;;7.10;99.90;;;;;;4146364;28;20045;-63
2023/05/14 02:35:28;;;;;;;9.80;6.03;;;7.10;99.90;;;;;;4163222;28;20064;-76
2023/05/14 02:37:30;;;;;;;7.93;5.47;;;7.10;99.90;;;;;;4163735;28;20059;-75
2023/05/14 02:39:31;;;;;;;7.00;5.60;;;7.10;99.90;;;;;;4164010;28;20367;-61
2023/05/14 02:41:32;;;;;;;8.83;5.90;;;7.10;99.90;;;;;;4163130;28;20126;-76
2023/05/14 02:43:33;;;;;;;8.43;5.87;;;7.10;99.90;;;;;;4158472;28;20138;-61
2023/05/14 02:45:35;;;;;;;8.47;5.60;;;7.10;99.90;;;;;;4146821;28;20465;-76
2023/05/14 02:47:36;;;;;;;9.80;5.63;;;7.10;99.90;;;;;;4147403;28;20033;-77
2023/05/14 02:49:37;;;;;;;8.03;5.73;;;7.10;99.90;;;;;;4146236;28;20041;-77
2023/05/14 02:51:38;;;;;;;10.07;5.77;;;7.10;99.90;;;;;;4157854;28;20088;-70
2023/05/14 02:53:39;;;;;;;11.50;5.23;;;7.10;99.90;;;;;;4162536;28;20050;-74
2023/05/14 02:55:41;;;;;;;13.37;6.50;;;7.20;99.90;;;;;;4163664;28;20619;-76
2023/05/14 02:57:42;;;;;;;8.70;5.70;;;7.20;99.90;;;;;;4162524;28;20575;-66
2023/05/14 02:59:43;;;;;;;7.13;4.97;;;7.20;99.90;;;;;;4163894;28;20025;-77
2023/05/14 03:01:44;;;;;;;8.50;5.83;;;7.20;99.90;;;;;;4162735;28;20029;-76
2023/05/14 03:03:45;;;;;;;7.40;5.73;;;7.30;99.90;;;;;;4162693;28;20042;-76
2023/05/14 03:05:46;;;;;;;8.90;5.90;;;7.30;99.90;;;;;;4162738;28;20041;-74
2023/05/14 03:07:50;;;;;;;8.67;6.30;;;7.40;99.90;;;;;;4150651;28;20034;-70
2023/05/14 03:09:51;;;;;;;11.30;6.10;;;7.50;99.90;;;;;;4147002;28;20084;-62
2023/05/14 03:11:52;;;;;;;8.13;6.53;;;7.70;99.90;;;;;;4146252;28;20038;-75
2023/05/14 03:13:53;;;;;;;8.50;6.23;;;7.90;99.90;;;;;;4147580;28;20022;-62
2023/05/14 03:15:55;;;;;;;9.77;5.80;;;8.20;99.90;;;;;;4146142;28;20544;-76
2023/05/14 03:17:56;;;;;;;12.70;6.30;;;8.40;99.90;;;;;;4147325;28;20029;-73
2023/05/14 03:19:57;;;;;;;8.07;5.73;;;8.60;99.90;;;;;;4146137;28;20448;-61
2023/05/14 03:21:58;;;;;;;7.37;5.20;;;8.90;99.90;;;;;;4146526;28;20084;-74
2023/05/14 03:24:00;;;;;;;8.70;5.83;;;9.10;99.90;;;;;;4145181;28;20042;-62
2023/05/14 03:26:01;;;;;;;7.53;5.57;;;9.50;99.90;;;;;;4158655;28;20050;-65
2023/05/14 03:28:03;;;;;;;7.47;5.30;;;9.70;99.90;;;;;;4162171;28;20034;-74
2023/05/14 03:30:05;;;;;;;7.70;5.30;;;10.10;99.90;;;;;;4163411;28;20041;-62
2023/05/14 03:32:06;;;;;;;7.07;4.60;;;10.50;99.90;;;;;;4147539;28;20033;-63
2023/05/14 03:34:07;;;;;;;7.77;5.00;;;10.90;99.90;;;;;;4161471;28;20033;-76
2023/05/14 03:36:08;;;;;;;6.83;5.30;;;11.20;99.90;;;;;;4162502;28;20083;-76
2023/05/14 03:38:09;;;;;;;7.97;5.10;;;11.30;99.90;;;;;;4162729;28;20473;-77
2023/05/14 03:40:11;;;;;;;4.83;4.33;;;11.50;99.90;;;;;;4162197;28;20021;-76
2023/05/14 03:42:12;;;;;;;9.83;5.60;;;11.50;99.90;;;;;;4145969;28;20030;-76
2023/05/14 03:44:13;;;;;;;7.63;5.43;;;11.70;99.90;;;;;;4161980;28;20111;-77
2023/05/14 03:46:14;;;;;;;7.73;5.23;;;11.70;99.90;;;;;;4162155;28;20048;-76
2023/05/14 03:48:15;;;;;;;8.70;5.33;;;11.70;99.90;;;;;;4145578;28;20046;-76
2023/05/14 03:50:17;;;;;;;9.23;5.00;;;11.70;99.90;;;;;;4162057;28;20429;-77
2023/05/14 03:52:18;;;;;;;10.07;5.40;;;11.60;99.90;;;;;;4163159;28;20021;-63
2023/05/14 03:54:19;;;;;;;11.07;5.83;;;11.40;99.90;;;;;;4144027;28;20895;-63
2023/05/14 03:56:21;;;;;;;10.10;5.67;;;11.20;99.90;;;;;;4144876;28;20556;-62
2023/05/14 03:58:22;;;;;;;11.30;5.60;;;11.10;99.90;;;;;;4145351;28;20387;-77
2023/05/14 04:00:23;;;;;;;10.73;6.00;;;11.10;99.90;;;;;;4146863;28;20076;-76
2023/05/14 04:02:24;;;;;;;8.00;5.80;;;11.20;99.90;;;;;;4153277;28;20021;-77
2023/05/14 04:04:25;;;;;;;10.53;5.70;;;11.30;99.90;;;;;;4162394;28;20107;-76
2023/05/14 04:06:27;;;;;;;11.47;5.63;;;11.40;99.90;;;;;;4154486;28;20025;-75
2023/05/14 04:08:28;;;;;;;12.97;7.80;;;11.50;99.90;;;;;;4162704;28;20889;-73
2023/05/14 04:10:30;;;;;;;7.47;5.63;;;11.70;99.90;;;;;;4162335;28;20033;-62
2023/05/14 04:12:32;;;;;;;5.83;4.70;;;11.90;99.90;;;;;;4161899;28;20064;-76
2023/05/14 04:14:33;;;;;;;7.93;5.27;;;12.00;99.90;;;;;;4162555;28;20462;-74
2023/05/14 04:16:34;;;;;;;7.30;5.13;;;12.10;99.90;;;;;;4160954;28;20057;-63
2023/05/14 04:18:35;;;;;;;5.80;4.40;;;12.20;99.90;;;;;;4162928;28;20052;-76
2023/05/14 04:20:37;;;;;;;5.63;4.43;;;12.80;99.90;;;;;;4150574;28;20050;-73
2023/05/14 04:22:38;;;;;;;6.33;4.23;;;13.40;99.90;;;;;;4146266;28;20080;-77
2023/05/14 04:24:40;;;;;;;6.70;4.20;;;13.50;99.90;;;;;;4136729;28;20080;-75
2023/05/14 04:26:41;;;;;;;4.80;3.97;;;13.30;99.90;;;;;;4162542;28;20435;-75
2023/05/14 04:28:42;;;;;;;8.50;4.33;;;13.40;99.90;;;;;;4159708;28;20026;-75
2023/05/14 04:30:44;;;;;;;6.63;4.17;;;13.60;99.90;;;;;;4128656;28;20117;-74
2023/05/14 04:32:45;;;;;;;5.63;4.30;;;14.00;99.90;;;;;;4144978;28;20076;-74
2023/05/14 04:34:46;;;;;;;5.97;3.90;;;14.40;99.90;;;;;;4146018;28;20080;-71
2023/05/14 04:36:48;;;;;;;6.20;4.40;;;14.80;99.90;;;;;;4145029;28;20034;-62
2023/05/14 04:38:49;;;;;;;4.60;3.90;;;14.90;99.90;;;;;;4145552;28;20030;-72
2023/05/14 04:40:50;;;;;;;6.10;3.83;;;15.10;99.90;;;;;;4155774;28;20037;-72
2023/05/14 04:42:51;;;;;;;5.83;3.80;;;15.30;99.90;;;;;;4159983;28;20494;-71
2023/05/14 04:44:52;;;;;;;5.57;3.75;;;15.40;99.90;;;;;;4161967;28;20034;-62
2023/05/14 04:46:54;;;;;;;5.73;4.07;;;15.30;99.90;;;;;;4160947;28;20029;-66
2023/05/14 04:48:58;;;;;;;6.10;3.25;;;15.20;99.90;;;;;;4162097;28;20029;-76
2023/05/14 04:50:59;;;;;;;6.50;3.90;;;15.10;99.90;;;;;;4156190;28;20429;-76
2023/05/14 04:53:02;;;;;;;4.63;3.70;;;15.00;99.90;;;;;;4162017;28;20021;-75
2023/05/14 04:55:03;;;;;;;6.72;3.80;;;15.00;99.90;;;;;;4160174;28;20451;-75
2023/05/14 04:57:04;;;;;;;6.10;3.35;;;15.00;99.90;;;;;;4153289;28;20100;-66
2023/05/14 04:59:05;;;;;;;4.47;3.53;;;14.80;99.90;;;;;;4144572;28;20089;-75
2023/05/14 05:01:07;;;;;;;5.15;3.90;;;14.50;99.90;;;;;;4151016;28;20083;-76
2023/05/14 05:03:08;;;;;;;5.80;3.63;;;14.60;99.90;;;;;;4150788;28;20042;-76
2023/05/14 05:05:09;;;;;;;5.82;4.20;;;14.60;99.90;;;;;;4153045;28;20044;-76
2023/05/14 05:07:11;;;;;;;5.82;3.28;;;14.90;99.90;;;;;;4130652;28;20022;-76
2023/05/14 05:09:13;;;;;;;4.45;3.00;;;14.70;99.90;;;;;;4144643;28;20046;-73
2023/05/14 05:11:14;;;;;;;4.30;3.73;;;14.60;99.90;;;;;;4145727;28;20072;-75
2023/05/14 05:13:15;;;;;;;5.18;3.10;;;14.40;99.90;;;;;;4147464;28;20038;-73
2023/05/14 05:15:17;;;;;;;8.23;3.22;;;14.20;99.90;;;;;;4145159;28;20803;-74
2023/05/14 05:17:18;;;;;;;6.10;3.37;;;13.90;99.90;;;;;;4144472;28;20026;-77
2023/05/14 05:19:19;;;;;;;4.10;2.97;;;13.70;99.90;;;;;;4147884;28;20034;-74
2023/05/14 05:21:20;;;;;;;5.67;3.07;;;13.60;99.90;;;;;;4144399;28;20376;-64
2023/05/14 05:23:22;;;;;;;4.27;3.00;;;13.50;99.90;;;;;;4145348;28;20096;-73
2023/05/14 05:25:23;;;;;;;8.80;3.77;;;13.40;99.90;;;;;;4149581;28;20115;-72
2023/05/14 05:27:24;;;;;;;7.93;3.27;;;13.30;99.90;;;;;;4160755;28;20099;-62
2023/05/14 05:29:26;;;;;;;4.67;3.27;;;13.20;99.90;;;;;;4160609;28;20033;-75
2023/05/14 05:31:27;;;;;;;4.57;3.43;;;13.10;99.90;;;;;;4161503;28;20095;-73
2023/05/14 05:33:28;;;;;;;6.33;3.30;;;13.10;99.90;;;;;;4159161;28;20041;-69
2023/05/14 05:35:29;;;;;;;5.83;3.50;;;13.50;99.90;;;;;;4161049;28;20045;-66
2023/05/14 05:37:30;;;;;;;4.43;3.40;;;13.70;99.90;;;;;;4160603;28;20068;-67
2023/05/14 05:39:33;;;;;;;5.83;3.60;;;13.60;99.90;;;;;;4161527;28;20071;-64
2023/05/14 05:41:34;;;;;;;4.37;3.40;;;13.50;99.90;;;;;;4160371;28;20042;-77
2023/05/14 05:43:35;;;;;;;5.20;3.30;;;13.50;99.90;;;;;;4160447;28;20099;-72
2023/05/14 05:45:36;;;;;;;3.97;3.03;;;13.30;99.90;;;;;;4159862;28;20509;-73
2023/05/14 05:47:38;;;;;;;3.80;3.13;;;13.40;99.90;;;;;;4157388;28;20038;-63
2023/05/14 05:49:39;;;;;;;4.27;3.37;;;13.40;99.90;;;;;;4149409;28;20451;-78
2023/05/14 05:51:40;;;;;;;4.70;3.70;;;13.30;99.90;;;;;;4158617;28;21608;-71
2023/05/14 05:53:41;;;;;;;3.90;2.90;;;13.40;99.90;;;;;;4151485;28;20037;-73
2023/05/14 05:55:42;;;;;;;4.53;3.17;;;13.40;99.90;;;;;;4159606;28;20131;-74
2023/05/14 05:57:43;;;;;;;4.97;3.20;;;13.40;99.90;;;;;;4156724;28;20057;-70
2023/05/14 05:59:45;;;;;;;4.23;3.77;;;13.50;99.90;;;;;;4147048;28;20107;-71
2023/05/14 06:01:46;;;;;;;2.80;2.00;;;13.70;99.90;;;;;;4145998;28;20030;-71
2023/05/14 06:03:48;;;;;;;3.80;2.37;;;13.90;99.90;;;;;;4148249;28;20042;-71
2023/05/14 06:05:49;;;;;;;3.87;1.67;;;13.90;99.90;;;;;;4144986;28;20038;-71
2023/05/14 06:07:52;;;;;;;3.73;1.90;;;14.00;99.90;;;;;;4143842;28;20087;-80
2023/05/14 06:09:53;;;;;;;4.67;2.07;;;14.10;99.90;;;;;;4144930;28;20026;-77
2023/05/14 06:11:54;;;;;;;6.27;1.63;;;14.10;99.90;;;;;;4143991;28;20068;-74
2023/05/14 06:13:55;;;;;;;2.40;1.90;;;14.00;99.90;;;;;;4146356;28;20100;-73
2023/05/14 06:15:56;;;;;;;4.30;2.37;;;14.00;99.90;;;;;;4154631;28;20452;-77
2023/05/14 06:17:58;;;;;;;2.13;1.90;;;14.00;99.90;;;;;;4147385;28;20084;-79
2023/05/14 06:19:59;;;;;;;4.20;2.00;;;13.90;99.90;;;;;;4144748;28;20096;-72
2023/05/14 06:22:00;;;;;;;3.73;2.17;;;14.00;99.90;;;;;;4143861;28;20034;-78
2023/05/14 06:24:01;;;;;;;2.73;2.13;;;14.20;99.90;;;;;;4144968;28;20037;-77
2023/05/14 06:26:03;;;;;;;3.60;2.20;;;14.00;99.90;;;;;;4143922;28;20407;-70
2023/05/14 06:28:04;;;;;;;4.50;2.13;;;14.10;99.90;;;;;;4144927;28;20022;-77
2023/05/14 06:30:06;;;;;;;4.33;2.33;;;14.10;99.90;;;;;;4144647;28;20080;-76
2023/05/14 06:32:07;;;;;;;3.63;2.30;;;14.20;99.90;;;;;;4137628;28;20042;-73
2023/05/14 06:34:09;;;;;;;5.87;2.10;;;14.40;99.90;;;;;;4160136;28;20022;-62
2023/05/14 06:36:10;;;;;;;3.27;2.07;;;14.50;99.90;;;;;;4162086;28;20569;-63
2023/05/14 06:38:11;;;;;;;2.97;2.10;;;14.60;99.90;;;;;;4160765;28;20130;-73
2023/05/14 06:40:16;;;;;;;4.20;2.10;;;14.70;99.90;;;;;;4162675;28;20083;-73
2023/05/14 06:42:17;;;;;;;4.17;2.60;;;15.00;99.90;;;;;;4143217;28;20049;-78
2023/05/14 06:44:18;;;;;;;3.47;2.23;;;15.10;99.90;;;;;;4151594;28;20037;-78
2023/05/14 06:46:20;;;;;;;2.73;2.40;;;15.20;99.90;;;;;;4146950;28;20092;-77
2023/05/14 06:48:21;;;;;;;3.77;2.37;;;15.30;99.90;;;;;;4146846;28;20033;-77
2023/05/14 06:50:22;;;;;;;5.18;2.72;;;15.50;99.90;;;;;;4151301;28;20064;-72
2023/05/14 06:52:24;;;;;;;4.80;2.63;;;15.60;99.50;;;;;;4162537;28;20095;-74
2023/05/14 06:54:25;;;;;;;5.10;2.70;;;15.60;98.80;;;;;;4163418;28;20037;-78
2023/05/14 06:56:27;;;;;;;4.55;2.10;;;15.40;98.70;;;;;;4162141;28;20022;-73
2023/05/14 06:58:28;;;;;;;3.65;2.67;;;15.40;98.60;;;;;;4152393;28;20482;-70
2023/05/14 07:00:29;;;;;;;5.75;2.30;;;15.20;98.70;;;;;;4145843;28;20045;-74
2023/05/14 07:02:30;;;;;;;9.85;3.72;;;15.20;98.50;;;;;;4155563;28;20552;-64
2023/05/14 07:04:32;;;;;;;2.83;2.45;;;15.30;98.60;;;;;;4162518;28;20045;-77
2023/05/14 07:06:33;;;;;;;2.75;2.40;;;15.40;98.80;;;;;;4163936;28;20030;-74
2023/05/14 07:08:34;;;;;;;2.90;2.60;;;15.40;98.70;;;;;;4162782;28;20017;-65
2023/05/14 07:10:36;;;;;;;3.67;2.53;;;15.40;98.80;;;;;;4163158;28;20095;-74
2023/05/14 07:12:37;;;;;;;3.13;2.33;;;15.60;98.70;;;;;;4153126;28;20029;-65
2023/05/14 07:14:39;;;;;;;3.67;1.92;;;15.60;98.40;;;;;;4162418;28;20037;-75
2023/05/14 07:16:41;;;;;;;3.72;2.53;;;15.70;98.20;;;;;;4162409;28;20037;-66
2023/05/14 07:18:42;;;;;;;4.65;2.40;;;15.60;97.70;;;;;;4150909;28;20030;-63
2023/05/14 07:20:43;;;;;;;4.85;2.22;;;15.60;97.90;;;;;;4153285;28;20037;-64
2023/05/14 07:22:44;;;;;;;2.17;1.98;;;15.70;97.90;;;;;;4162121;28;20094;-69
2023/05/14 07:24:46;;;;;;;3.10;2.08;;;15.80;97.60;;;;;;4161711;28;20065;-71
2023/05/14 07:26:47;;;;;;;4.28;1.88;;;15.80;97.60;;;;;;4161425;28;20029;-71
2023/05/14 07:28:48;;;;;;;3.40;2.45;;;15.90;97.60;;;;;;4139118;28;20112;-70
2023/05/14 07:30:49;;;;;;;4.25;2.50;;;15.90;97.70;;;;;;4160060;28;20084;-68
2023/05/14 07:32:50;;;;;;;2.63;2.00;;;15.90;97.30;;;;;;4163044;28;20034;-76
2023/05/14 07:34:51;;;;;;;2.13;1.50;;;16.00;97.60;;;;;;4161788;28;20033;-69
2023/05/14 07:36:52;;;;;;;3.55;1.77;;;16.00;97.10;;;;;;4145322;28;20077;-72
2023/05/14 07:38:54;;;;;;;3.03;2.00;;;16.10;97.10;;;;;;4162021;28;20034;-72
2023/05/14 07:40:55;;;;;;;2.88;1.58;;;16.20;97.30;;;;;;4163238;28;20091;-73
2023/05/14 07:42:56;;;;;;;1.83;1.55;;;16.20;97.40;;;;;;4153990;28;20421;-68
2023/05/14 07:44:59;;;;;;;2.75;1.75;;;16.20;97.40;;;;;;4146690;28;20053;-71
2023/05/14 07:47:00;;;;;;;4.78;1.70;;;16.30;97.60;;;;;;4132709;28;20072;-68
2023/05/14 07:49:01;;;;;;;3.25;1.67;;;16.30;97.60;;;;;;4149460;28;20088;-73
2023/05/14 07:51:02;;;;;;;3.08;1.63;;;16.30;97.20;;;;;;4146217;28;20034;-71
2023/05/14 07:53:03;;;;;;;2.70;1.88;;;16.20;97.30;;;;;;4146394;28;20045;-63
2023/05/14 07:55:05;;;;;;;2.88;1.42;;;16.20;97.40;;;;;;4159572;28;20099;-69
2023/05/14 07:57:06;;;;;;;3.75;1.73;;;16.10;97.50;;;;;;4156679;28;20116;-73
2023/05/14 07:59:07;;;;;;;2.45;2.08;;;16.00;97.30;;;;;;4146319;28;20104;-70
2023/05/14 08:01:09;;;;;;;3.22;1.80;;;16.00;97.70;;;;;;4150596;28;20034;-77
2023/05/14 08:03:10;;;;;;;3.25;2.38;;;15.90;97.80;;;;;;4158893;28;20912;-71
2023/05/14 08:05:11;;;;;;;8.20;3.45;;;15.90;97.70;;;;;;4160592;28;20494;-75
2023/05/14 08:07:12;;;;;;;2.85;1.95;;;16.10;98.00;;;;;;4149286;28;20033;-70
2023/05/14 08:09:14;;;;;;;3.33;2.15;;;16.30;97.90;;;;;;4144745;28;20045;-70
2023/05/14 08:11:15;;;;;;;2.08;1.88;;;16.40;97.70;;;;;;4149618;28;20034;-73
2023/05/14 08:13:16;;;;;;;2.35;2.05;;;16.70;97.90;;;;;;4143266;28;20034;-68
2023/05/14 08:15:17;;;;;;;2.97;2.38;;;16.70;97.30;;;;;;4128113;28;20502;-74
2023/05/14 08:17:18;;;;;;;3.00;1.73;;;16.80;97.20;;;;;;4146289;28;20021;-65
2023/05/14 08:19:19;;;;;;;4.57;2.25;;;16.90;97.00;;;;;;4157629;28;20042;-65
2023/05/14 08:21:21;;;;;;;3.05;1.35;;;17.10;96.70;;;;;;4147138;28;20088;-71
2023/05/14 08:23:22;;;;;;;2.65;1.85;;;17.00;96.20;;;;;;4145045;28;20080;-75
2023/05/14 08:25:23;;;;;;;2.10;1.60;;;17.00;96.30;;;;;;4145713;28;20541;-64
2023/05/14 08:27:25;;;;;;;3.28;2.17;;;17.10;96.00;;;;;;4145696;28;20030;-64
2023/05/14 08:29:26;;;;;;;2.90;1.80;;;17.10;95.70;;;;;;4162116;28;20099;-64
2023/05/14 08:31:27;;;;;;;6.70;1.80;;;17.20;96.00;;;;;;4160505;28;20045;-64
2023/05/14 08:33:28;;;;;;;4.35;2.10;;;17.30;95.80;;;;;;4159012;28;20037;-75
2023/05/14 08:35:29;;;;;;;2.85;1.83;;;17.40;95.50;;;;;;4144397;28;20119;-69
2023/05/14 08:37:30;;;;;;;4.40;2.08;;;17.40;95.50;;;;;;4145339;28;20034;-65
2023/05/14 08:39:32;;;;;;;2.97;2.08;;;17.40;95.30;;;;;;4144519;28;20092;-73
2023/05/14 08:41:33;;;;;;;4.88;1.58;;;17.30;95.20;;;;;;4145099;28;20042;-65
2023/05/14 08:44:04;;;;;;;2.28;1.40;;;17.20;95.40;;;;;;4144781;28;20532;-70
2023/05/14 08:46:06;;;;;;;2.45;2.10;;;17.00;94.40;;;;;;4152139;28;20053;-72
2023/05/14 08:48:11;;;;;;;2.10;1.50;;;17.00;95.10;;;;;;4147223;28;20042;-64
2023/05/14 08:50:12;;;;;;;2.17;1.60;;;17.00;94.90;;;;;;4161917;28;20428;-74
2023/05/14 08:52:16;;;;;;;2.35;1.70;;;17.10;94.70;;;;;;4160438;28;20079;-73
2023/05/14 08:54:18;;;;;;;1.60;1.30;;;17.20;94.60;;;;;;4160786;28;20449;-74
2023/05/14 08:56:20;;;;;;;3.83;1.55;;;17.30;94.80;;;;;;4146370;28;20030;-65
2023/05/14 08:58:21;;;;;;;1.95;1.50;;;17.30;94.40;;;;;;4145115;28;20046;-73
2023/05/14 09:00:23;;;;;;;2.70;1.45;;;17.30;94.00;;;;;;4144493;28;20414;-70
2023/05/14 09:02:28;;;;;;;2.50;1.25;;;17.30;93.90;;;;;;4144138;28;20042;-64
2023/05/14 09:04:31;;;;;;;4.97;1.85;;;17.30;93.60;;;;;;4148631;28;20037;-72
2023/05/14 09:06:36;;;;;;;7.35;1.58;;;17.30;93.90;;;;;;4159625;28;20405;-76
2023/05/14 09:08:37;;;;;;;3.03;1.73;;;17.50;94.20;;;;;;4156276;28;20460;-66
2023/05/14 09:10:39;;;;;;;1.98;1.25;;;17.50;93.70;;;;;;4144551;28;20525;-73
2023/05/14 09:12:40;;;;;;;1.45;1.35;;;17.60;93.90;;;;;;4145043;28;20049;-64
2023/05/14 09:14:41;;;;;;;2.03;1.60;;;17.60;93.60;;;;;;4159656;28;20104;-65
2023/05/14 09:16:47;;;;;;;3.22;1.33;;;17.60;93.90;;;;;;4160695;28;20037;-69
2023/05/14 09:18:50;;;;;;;5.78;1.45;;;17.60;94.10;;;;;;4160215;28;20083;-71
2023/05/14 09:20:51;;;;;;;2.47;2.28;;;17.60;93.60;;;;;;4161346;28;20482;-70
2023/05/14 09:22:53;;;;;;;3.05;1.40;;;17.50;93.60;;;;;;4160051;28;20021;-68
2023/05/14 09:25:10;;;;;;;2.28;1.33;;;17.60;93.80;;;;;;4161138;28;20112;-66
2023/05/14 09:27:20;;;;;;;1.88;1.38;;;17.90;93.90;;;;;;4143283;28;20073;-72
2023/05/14 09:29:25;;;;;;;2.10;1.60;;;17.90;93.60;;;;;;4145252;28;20037;-65
2023/05/14 09:31:31;;;;;;;2.35;1.35;;;18.00;93.20;;;;;;4143980;28;20096;-74
2023/05/14 09:33:33;;;;;;;5.32;1.30;;;18.00;93.00;;;;;;4144900;28;20025;-73
2023/05/14 09:35:34;;;;;;;1.65;1.38;;;18.10;93.40;;;;;;4143802;28;20421;-70
2023/05/14 09:37:35;;;;;;;2.55;1.60;;;18.30;93.30;;;;;;4144672;28;20041;-76
2023/05/14 09:39:37;;;;;;;9.43;1.25;;;18.40;93.10;;;;;;4143481;28;20045;-71
2023/05/14 09:41:38;;;;;;;1.98;1.25;;;18.50;93.00;;;;;;4144564;28;20030;-74
2023/05/14 09:43:40;;;;;;;2.17;1.25;;;18.60;92.90;;;;;;4144823;28;20026;-73
2023/05/14 09:45:41;;;;;;;2.95;1.30;;;18.80;92.70;;;;;;4144428;28;20033;-73
2023/05/14 09:47:43;;;;;;;1.88;1.75;;;18.90;92.50;;;;;;4144516;28;20034;-70
2023/05/14 09:49:47;;;;;;;2.80;1.13;;;18.80;92.00;;;;;;4143920;28;20030;-66
2023/05/14 09:51:49;;;;;;;1.92;1.35;;;18.60;91.90;;;;;;4144685;28;20625;-74
2023/05/14 09:53:53;;;;;;;2.35;1.33;;;18.40;92.10;;;;;;4143470;28;20138;-73
2023/05/14 09:55:54;;;;;;;1.95;1.33;;;18.30;92.50;;;;;;4144806;28;20022;-70
2023/05/14 09:57:55;;;;;;;1.80;1.27;;;18.40;92.50;;;;;;4143359;28;20139;-74
2023/05/14 09:59:57;;;;;;;2.65;1.30;;;18.50;92.80;;;;;;4144891;28;20076;-72
2023/05/14 10:01:59;;;;;;;1.90;1.42;;;18.60;92.60;;;;;;4143866;28;20038;-65
2023/05/14 10:04:05;;;;;;;4.38;1.50;;;18.80;92.80;;;;;;4144632;28;20038;-66
2023/05/14 10:06:06;;;;;;;2.17;1.30;;;19.00;92.90;;;;;;4142867;28;20449;-64
2023/05/14 10:08:28;;;;;;;6.25;1.40;;;19.00;92.70;;;;;;4144796;28;20080;-73
2023/05/14 10:10:29;;;;;;;2.28;1.60;;;18.70;91.30;;;;;;4143512;28;20053;-63
2023/05/14 10:12:33;;;;;;;2.67;1.60;;;18.70;92.20;;;;;;4146079;28;20356;-63
2023/05/14 10:14:48;;;;;;;5.13;1.50;;;18.70;92.30;;;;;;4146364;28;20088;-65
2023/05/14 10:16:51;;;;;;;2.22;1.10;;;18.70;92.40;;;;;;4147956;28;20475;-65
2023/05/14 10:18:59;;;;;;;5.05;1.45;;;18.90;92.40;;;;;;4146810;28;20065;-61
2023/05/14 10:21:04;;;;;;;2.95;1.35;;;19.10;92.20;;;;;;4147536;28;20107;-63
2023/05/14 10:23:06;;;;;;;2.42;1.48;;;19.20;91.80;;;;;;4146950;28;20034;-64
2023/05/14 10:25:08;;;;;;;1.60;1.20;;;19.30;92.00;;;;;;4146909;28;20042;-61
2023/05/14 10:27:09;;;;;;;2.00;1.30;;;19.30;91.90;;;;;;4146804;28;20433;-62
2023/05/14 10:29:11;;;;;;;2.40;1.30;;;19.20;91.50;;;;;;4146860;28;20092;-60
2023/05/14 10:31:13;;;;;;;1.73;1.05;;;19.10;91.70;;;;;;4146264;28;20038;-61
2023/05/14 10:33:15;;;;;;;1.50;1.00;;;19.00;91.60;;;;;;4146766;28;20432;-61
2023/05/14 10:35:24;;;;;;;3.03;1.40;;;18.90;91.20;;;;;;4147196;28;20076;-61